Cindy Brent — WDC2642 — position and weather

sailwx.info

Track history (hours):
 
Tides and Currents Weather Stations Pressure Air Temp Water Temp Dewpoint Dewpoint Depression Visibility Wind Speed Wind Dir Waves Ship Positions

Cindy Brent

Owner: Kirby Inland Marine LP, Houston, TX. More information available from US FCC via Universal Licensing System and Coast Guard Vessel Documentation Center.

Last reported at 2017-Dec-24 19:01 UTC. Time now 2018-Feb-21 07:23 UTC.
Position N 29°33' W 090°26'.
Warning: this ship's position is 58 days out of date.

Length 202 m; draft 2.7 m.

Type: . MMSI: 366995920.

Date/timePositionNaut miles runAvg speedWind from/ knotsBaromVisibWave heightAir tempDewpointWater temp
2017-Dec-24 19:01N 29°33' W 090°26'1 5.9
2017-Dec-24 18:54N 29°33' W 090°27'3 7.0
2017-Dec-24 18:30N 29°34' W 090°30'3 7.0
2017-Dec-24 18:00N 29°34' W 090°34'3 5.7
2017-Dec-24 17:30N 29°35' W 090°37'3 5.6
2017-Dec-24 17:00N 29°36' W 090°40'2 4.5
2017-Dec-24 16:30N 29°36' W 090°43'2 4.4
2017-Dec-24 16:00N 29°34' W 090°43'1 1.0
2017-Dec-24 15:30N 29°34' W 090°44'2 4.9
2017-Dec-24 15:00N 29°32' W 090°46'3 6.1
2017-Dec-24 14:30N 29°32' W 090°49'4 7.2
2017-Dec-24 14:00N 29°33' W 090°53'4 7.2
2017-Dec-24 13:25N 29°35' W 090°58'55 3.9
2017-Dec-23 23:15N 29°50' W 091°58'2 7.1
2017-Dec-23 23:00N 29°50' W 091°60'4 7.2
2017-Dec-23 22:30N 29°48' W 092°04'3 6.6
2017-Dec-23 22:00N 29°47' W 092°07'3 5.8
2017-Dec-23 21:30N 29°47' W 092°11'3 5.9
2017-Dec-23 21:00N 29°48' W 092°14'2 4.2
2017-Dec-23 20:30N 29°48' W 092°16'1 1.6
2017-Dec-23 20:00N 29°49' W 092°17'0 0.1
2017-Dec-23 19:30N 29°49' W 092°17'3 5.0
2017-Dec-23 19:00N 29°50' W 092°19'40 3.5
2017-Dec-23 07:40N 29°56' W 093°05'1 3.4
2017-Dec-23 07:29N 29°56' W 093°05'0 0.1
2017-Dec-23 07:00N 29°56' W 093°05'0 0.0
2017-Dec-23 06:30N 29°56' W 093°05'0 0.0
2017-Dec-23 05:59N 29°56' W 093°05'0 0.0
2017-Dec-23 05:30N 29°56' W 093°05'0 0.1
2017-Dec-23 05:00N 29°56' W 093°05'0 0.0
2017-Dec-23 04:30N 29°56' W 093°05'0 0.3
2017-Dec-23 03:58N 29°56' W 093°06'0 0.0
2017-Dec-23 03:18N 29°56' W 093°06'0 0.3
2017-Dec-23 02:44N 29°56' W 093°05'0 0.4
2017-Dec-23 02:25N 29°56' W 093°06'0 0.6
2017-Dec-23 02:00N 29°56' W 093°05'0 0.0
2017-Dec-23 01:25N 29°56' W 093°05'0 0.0
2017-Dec-23 00:59N 29°56' W 093°05'0 0.5
2017-Dec-23 00:24N 29°56' W 093°05'2 3.8
2017-Dec-23 00:00N 29°56' W 093°07'2 4.5
2017-Dec-22 23:30N 29°56' W 093°09'0 0.0
2017-Dec-22 23:00N 29°56' W 093°09'0 0.0
2017-Dec-22 22:30N 29°56' W 093°09'0 0.0
2017-Dec-22 22:00N 29°56' W 093°09'0 0.0
2017-Dec-22 21:30N 29°56' W 093°09'0 0.0
2017-Dec-22 21:00N 29°56' W 093°09'0 0.0
2017-Dec-22 20:30N 29°56' W 093°09'0 0.0
2017-Dec-22 20:00N 29°56' W 093°09'0 0.0
2017-Dec-22 19:30N 29°56' W 093°09'0 0.0
2017-Dec-22 19:00N 29°56' W 093°09'0 0.0
2017-Dec-22 18:30N 29°56' W 093°09'0 0.0
2017-Dec-22 18:00N 29°56' W 093°09'0 0.0
2017-Dec-22 17:30N 29°56' W 093°09'0 0.6
2017-Dec-22 17:00N 29°56' W 093°09'0 0.0
2017-Dec-22 16:30N 29°56' W 093°09'0 0.2
2017-Dec-22 16:00N 29°56' W 093°09'0 0.0
2017-Dec-22 15:30N 29°56' W 093°09'1 1.5
2017-Dec-22 15:00N 29°56' W 093°10'3 5.6
2017-Dec-22 14:30N 29°58' W 093°12'3 5.5
2017-Dec-22 14:00N 30°00' W 093°14'2 4.1
2017-Dec-22 13:30N 30°02' W 093°15'3 5.0
2017-Dec-22 13:00N 30°04' W 093°16'1 2.9
2017-Dec-22 12:30N 30°05' W 093°18'0 0.9
2017-Dec-22 12:00N 30°06' W 093°18'1 1.9
2017-Dec-22 11:30N 30°06' W 093°19'0 0.1
2017-Dec-22 11:00N 30°06' W 093°19'0 0.0
2017-Dec-22 10:30N 30°06' W 093°19'0 0.0
2017-Dec-22 10:00N 30°06' W 093°19'0 0.0
2017-Dec-22 09:30N 30°06' W 093°19'0 0.1
2017-Dec-22 09:00N 30°06' W 093°19'0 0.0
2017-Dec-22 08:30N 30°06' W 093°19'0 0.0
2017-Dec-22 08:00N 30°06' W 093°19'0 0.0
2017-Dec-22 07:30N 30°06' W 093°19'0 0.0
2017-Dec-22 07:00N 30°06' W 093°19'0 0.0
2017-Dec-22 06:30N 30°06' W 093°19'0 0.0
2017-Dec-22 06:00N 30°06' W 093°19'0 0.0
2017-Dec-22 05:30N 30°06' W 093°19'0 0.0
2017-Dec-22 05:00N 30°06' W 093°19'0 0.0
2017-Dec-22 04:30N 30°06' W 093°19'0 0.0
2017-Dec-22 04:00N 30°06' W 093°19'0 0.0
2017-Dec-22 03:30N 30°06' W 093°19'0 0.0
2017-Dec-22 03:00N 30°06' W 093°19'0 0.0
2017-Dec-22 02:30N 30°06' W 093°19'0 0.0
2017-Dec-22 02:00N 30°06' W 093°19'0 0.0
2017-Dec-22 01:30N 30°06' W 093°19'0 0.0
2017-Dec-22 01:00N 30°06' W 093°19'0 0.0
2017-Dec-22 00:30N 30°06' W 093°19'0 0.0
2017-Dec-22 00:00N 30°06' W 093°19'0 0.0
2017-Dec-21 23:30N 30°06' W 093°19'0 0.0
2017-Dec-21 23:00N 30°06' W 093°19'0 0.0
2017-Dec-21 22:30N 30°06' W 093°19'0 0.0
2017-Dec-21 22:00N 30°06' W 093°19'0 0.0
2017-Dec-21 21:30N 30°06' W 093°19'0 0.0
2017-Dec-21 21:00N 30°06' W 093°19'0 0.0
2017-Dec-21 20:30N 30°06' W 093°19'0 0.0
2017-Dec-21 20:00N 30°06' W 093°19'0 0.0
2017-Dec-21 19:30N 30°06' W 093°19'0 0.0
2017-Dec-21 19:00N 30°06' W 093°19'0 0.0
2017-Dec-21 18:30N 30°06' W 093°19'0 0.0
2017-Dec-21 18:00N 30°06' W 093°19'0 0.0
2017-Dec-21 17:30N 30°06' W 093°19'0 0.0
2017-Dec-21 17:00N 30°06' W 093°19'0 0.0
2017-Dec-21 16:30N 30°06' W 093°19'0 0.0
2017-Dec-21 16:00N 30°06' W 093°19'0 0.0
2017-Dec-21 15:30N 30°06' W 093°19'0 0.0
2017-Dec-21 15:00N 30°06' W 093°19'0 0.0
2017-Dec-21 14:30N 30°06' W 093°19'0 0.0
2017-Dec-21 13:57N 30°06' W 093°19'0 0.0
2017-Dec-21 13:29N 30°06' W 093°19'0 0.0
2017-Dec-21 12:59N 30°06' W 093°19'0 0.3
2017-Dec-21 12:30N 30°06' W 093°19'2 3.8
2017-Dec-21 12:00N 30°04' W 093°21'1 2.8
2017-Dec-21 11:30N 30°04' W 093°22'2 4.6
2017-Dec-21 10:59N 30°04' W 093°25'4 6.8
2017-Dec-21 10:23N 30°04' W 093°30'3 6.7
2017-Dec-21 09:59N 30°04' W 093°33'3 6.8
2017-Dec-21 09:29N 30°04' W 093°37'4 7.0
2017-Dec-21 08:59N 30°04' W 093°41'3 5.1
2017-Dec-21 08:29N 30°03' W 093°44'3 5.4
2017-Dec-21 08:00N 30°01' W 093°46'3 7.0
2017-Dec-21 07:30N 29°59' W 093°49'3 6.3
2017-Dec-21 07:00N 29°57' W 093°52'5 9.0
2017-Dec-21 06:29N 29°53' W 093°55'4 8.4
2017-Dec-21 06:00N 29°50' W 093°57'2 3.3
2017-Dec-21 05:30N 29°49' W 093°59'2 4.8
2017-Dec-21 05:00N 29°47' W 094°01'3 5.4
2017-Dec-21 04:30N 29°46' W 094°03'3 5.3
2017-Dec-21 04:00N 29°44' W 094°06'39 3.2
2017-Dec-20 15:48N 29°24' W 094°45'5 3.4
2017-Dec-20 14:25N 29°26' W 094°50'3 8.6
2017-Dec-20 14:00N 29°29' W 094°52'5 9.1
2017-Dec-20 13:30N 29°33' W 094°54'4 8.8
2017-Dec-20 13:00N 29°36' W 094°57'4 8.8
2017-Dec-20 12:30N 29°41' W 094°59'3 7.0
2017-Dec-20 12:00N 29°43' W 095°01'3 6.3
2017-Dec-20 11:29N 29°45' W 095°04'4 7.3
2017-Dec-20 11:00N 29°44' W 095°08'1 2.0
2017-Dec-20 10:30N 29°44' W 095°09'0 0.0
2017-Dec-20 10:00N 29°44' W 095°09'0 0.0
2017-Dec-20 09:29N 29°44' W 095°09'0 0.0
2017-Dec-20 09:00N 29°44' W 095°09'0 0.0
2017-Dec-20 08:30N 29°44' W 095°09'0 0.0
2017-Dec-20 08:00N 29°44' W 095°09'0 0.0
2017-Dec-20 07:30N 29°44' W 095°09'0 0.0
2017-Dec-20 07:00N 29°44' W 095°09'0 0.0
2017-Dec-20 06:30N 29°44' W 095°09'0 0.0
2017-Dec-20 06:00N 29°44' W 095°09'0 0.0
2017-Dec-20 05:30N 29°44' W 095°09'0 0.0
2017-Dec-20 05:00N 29°44' W 095°09'0 0.0
2017-Dec-20 04:30N 29°44' W 095°09'0 0.0
2017-Dec-20 04:00N 29°44' W 095°09'0 0.0
2017-Dec-20 03:30N 29°44' W 095°09'0 0.0
2017-Dec-20 02:54N 29°44' W 095°09'0 0.0
2017-Dec-20 02:24N 29°44' W 095°09'0 0.0
2017-Dec-20 01:52N 29°44' W 095°09'0 0.0
2017-Dec-20 01:23N 29°44' W 095°09'0 0.0
2017-Dec-20 00:58N 29°44' W 095°09'0 0.0
2017-Dec-20 00:29N 29°44' W 095°09'0 0.0
2017-Dec-20 00:00N 29°44' W 095°09'0 0.0
2017-Dec-19 23:28N 29°44' W 095°09'0 0.0
2017-Dec-19 16:00N 29°44' W 095°09'0 0.0
2017-Dec-19 15:24N 29°44' W 095°09'0 0.0
2017-Dec-19 15:00N 29°44' W 095°09'0 0.0
2017-Dec-19 13:42N 29°44' W 095°09'0 0.0
2017-Dec-19 13:31N 29°44' W 095°09'0 0.0
2017-Dec-19 12:38N 29°44' W 095°09'0 0.0
2017-Dec-19 12:30N 29°44' W 095°09'0 0.0
2017-Dec-19 12:00N 29°44' W 095°09'0 0.0
2017-Dec-19 11:30N 29°44' W 095°09'0 0.0
2017-Dec-19 10:59N 29°44' W 095°09'0 0.0
2017-Dec-19 10:28N 29°44' W 095°09'0 0.0
2017-Dec-19 09:59N 29°44' W 095°09'0 0.0
2017-Dec-19 09:30N 29°44' W 095°09'0 0.0
2017-Dec-19 09:00N 29°44' W 095°09'0 0.0
2017-Dec-19 08:30N 29°44' W 095°09'0 0.0
2017-Dec-19 08:01N 29°44' W 095°09'0 0.0
2017-Dec-19 07:30N 29°44' W 095°09'0 0.0
2017-Dec-19 07:00N 29°44' W 095°09'0 0.0
2017-Dec-19 06:30N 29°44' W 095°09'0 0.0
2017-Dec-19 06:00N 29°44' W 095°09'0 0.0
2017-Dec-19 05:30N 29°44' W 095°09'0 0.0
2017-Dec-19 05:00N 29°44' W 095°09'0 0.0
2017-Dec-19 04:30N 29°44' W 095°09'0 0.0
2017-Dec-19 04:00N 29°44' W 095°09'0 0.0
2017-Dec-19 03:30N 29°44' W 095°09'0 0.0
2017-Dec-19 03:01N 29°44' W 095°09'0 0.0
2017-Dec-19 02:29N 29°44' W 095°09'0 0.0
2017-Dec-19 01:59N 29°44' W 095°09'0 0.0
2017-Dec-19 00:13N 29°44' W 095°09'0 0.0
2017-Dec-18 23:48N 29°44' W 095°09'0 0.0
2017-Dec-18 23:23N 29°44' W 095°09'0 0.0
2017-Dec-18 21:05N 29°44' W 095°09'0 0.3
2017-Dec-18 20:55N 29°44' W 095°09'0 0.2
2017-Dec-18 20:30N 29°44' W 095°09'0 0.1
2017-Dec-18 19:52N 29°44' W 095°09'0 0.4
2017-Dec-18 19:29N 29°44' W 095°09'2 4.2
2017-Dec-18 18:55N 29°45' W 095°06'2 4.8
2017-Dec-18 18:29N 29°45' W 095°04'3 6.7
2017-Dec-18 18:00N 29°43' W 095°01'3 6.7
2017-Dec-18 17:30N 29°40' W 094°59'4 8.3
2017-Dec-18 17:00N 29°37' W 094°57'4 8.3
2017-Dec-18 16:30N 29°33' W 094°55'4 7.9
2017-Dec-18 16:00N 29°30' W 094°52'70 2.1
2017-Dec-17 06:54N 30°04' W 093°41'1 1.5
2017-Dec-17 06:27N 30°04' W 093°40'3 5.9
2017-Dec-17 06:00N 30°04' W 093°37'3 5.5
2017-Dec-17 05:30N 30°04' W 093°34'3 5.6
2017-Dec-17 05:00N 30°04' W 093°30'3 5.6
2017-Dec-17 04:30N 30°04' W 093°27'3 5.6
2017-Dec-17 04:00N 30°04' W 093°24'3 5.4
2017-Dec-17 03:30N 30°04' W 093°21'2 4.8
2017-Dec-17 03:00N 30°06' W 093°19'1 2.2
2017-Dec-17 02:30N 30°06' W 093°18'0 1.0
2017-Dec-17 02:00N 30°05' W 093°18'1 1.1
2017-Dec-17 01:30N 30°05' W 093°17'2 3.2
2017-Dec-17 01:00N 30°04' W 093°16'0 0.0
2017-Dec-17 00:30N 30°04' W 093°16'0 0.0
2017-Dec-17 00:00N 30°04' W 093°16'0 0.0
2017-Dec-16 23:30N 30°04' W 093°16'0 0.0
2017-Dec-16 23:00N 30°04' W 093°16'0 0.0
2017-Dec-16 22:30N 30°04' W 093°16'0 0.1
2017-Dec-16 22:01N 30°04' W 093°16'1 1.8
2017-Dec-16 21:30N 30°03' W 093°16'0 0.0
2017-Dec-16 21:00N 30°03' W 093°16'0 0.0
2017-Dec-16 20:30N 30°03' W 093°16'0 0.3
2017-Dec-16 20:00N 30°03' W 093°16'1 2.6
2017-Dec-16 19:30N 30°02' W 093°14'2 4.5
2017-Dec-16 19:00N 29°60' W 093°13'3 5.6
2017-Dec-16 18:30N 29°58' W 093°11'2 4.4
2017-Dec-16 18:00N 29°56' W 093°09'4 5.5
2017-Dec-16 17:20N 29°56' W 093°05'33 3.4
2017-Dec-16 07:38N 29°53' W 092°27'2 4.6
2017-Dec-16 07:10N 29°53' W 092°24'1 5.1
2017-Dec-16 06:53N 29°52' W 092°23'2 4.2
2017-Dec-16 06:30N 29°51' W 092°22'2 3.9
2017-Dec-16 06:00N 29°50' W 092°20'2 3.5
2017-Dec-16 05:30N 29°50' W 092°18'2 4.3
2017-Dec-16 05:00N 29°48' W 092°16'2 4.4
2017-Dec-16 04:30N 29°48' W 092°13'2 3.5
2017-Dec-16 04:00N 29°47' W 092°12'1 2.4
2017-Dec-16 03:30N 29°47' W 092°10'2 3.4
2017-Dec-16 03:00N 29°47' W 092°08'1 1.9
2017-Dec-16 02:30N 29°47' W 092°07'1 2.2
2017-Dec-16 02:00N 29°48' W 092°06'2 4.4
2017-Dec-16 01:28N 29°49' W 092°04'2 5.0
2017-Dec-16 01:00N 29°49' W 092°01'3 5.2
2017-Dec-16 00:30N 29°50' W 091°58'3 5.0
2017-Dec-16 00:00N 29°51' W 091°55'52 5.1
2017-Dec-15 13:49N 29°35' W 090°58'2 5.4
2017-Dec-15 13:22N 29°34' W 090°56'3 5.7
2017-Dec-15 12:52N 29°32' W 090°53'2 5.2
2017-Dec-15 12:30N 29°32' W 090°51'3 5.6
2017-Dec-15 12:00N 29°32' W 090°48'2 4.0
2017-Dec-15 11:30N 29°33' W 090°45'2 3.8
2017-Dec-15 11:00N 29°34' W 090°44'2 3.6
2017-Dec-15 10:30N 29°36' W 090°43'1 3.0
2017-Dec-15 10:00N 29°37' W 090°42'2 3.7
2017-Dec-15 09:30N 29°36' W 090°40'3 5.0
2017-Dec-15 09:00N 29°35' W 090°37'2 4.5
2017-Dec-15 08:30N 29°34' W 090°35'3 5.4
2017-Dec-15 08:00N 29°34' W 090°32'3 5.7
2017-Dec-15 07:30N 29°34' W 090°28'3 5.6
2017-Dec-15 07:00N 29°33' W 090°25'2 3.8
2017-Dec-15 06:30N 29°34' W 090°23'2 4.5
2017-Dec-15 06:00N 29°36' W 090°22'5 5.2
2017-Dec-15 05:06N 29°39' W 090°18'0 5.2
2017-Dec-15 05:00N 29°39' W 090°17'  
Track history (hours):
 
Tides and Currents Weather Stations Pressure Air Temp Water Temp Dewpoint Dewpoint Depression Visibility Wind Speed Wind Dir Waves Ship Positions

Cindy Brent

Owner: Kirby Inland Marine LP, Houston, TX. More information available from US FCC via Universal Licensing System and Coast Guard Vessel Documentation Center.

Last reported at 2017-Dec-24 19:01 UTC. Time now 2018-Feb-21 07:23 UTC.
Position N 29°33' W 090°26'.
Warning: this ship's position is 58 days out of date.

Length 202 m; draft 2.7 m.

Type: . MMSI: 366995920.

Date/timePositionNaut miles runAvg speedWind from/ knotsBaromVisibWave heightAir tempDewpointWater temp
2017-Dec-24 19:01N 29°33' W 090°26'1 5.9
2017-Dec-24 18:54N 29°33' W 090°27'3 7.0
2017-Dec-24 18:30N 29°34' W 090°30'3 7.0
2017-Dec-24 18:00N 29°34' W 090°34'3 5.7
2017-Dec-24 17:30N 29°35' W 090°37'3 5.6
2017-Dec-24 17:00N 29°36' W 090°40'2 4.5
2017-Dec-24 16:30N 29°36' W 090°43'2 4.4
2017-Dec-24 16:00N 29°34' W 090°43'1 1.0
2017-Dec-24 15:30N 29°34' W 090°44'2 4.9
2017-Dec-24 15:00N 29°32' W 090°46'3 6.1
2017-Dec-24 14:30N 29°32' W 090°49'4 7.2
2017-Dec-24 14:00N 29°33' W 090°53'4 7.2
2017-Dec-24 13:25N 29°35' W 090°58'55 3.9
2017-Dec-23 23:15N 29°50' W 091°58'2 7.1
2017-Dec-23 23:00N 29°50' W 091°60'4 7.2
2017-Dec-23 22:30N 29°48' W 092°04'3 6.6
2017-Dec-23 22:00N 29°47' W 092°07'3 5.8
2017-Dec-23 21:30N 29°47' W 092°11'3 5.9
2017-Dec-23 21:00N 29°48' W 092°14'2 4.2
2017-Dec-23 20:30N 29°48' W 092°16'1 1.6
2017-Dec-23 20:00N 29°49' W 092°17'0 0.1
2017-Dec-23 19:30N 29°49' W 092°17'3 5.0
2017-Dec-23 19:00N 29°50' W 092°19'40 3.5
2017-Dec-23 07:40N 29°56' W 093°05'1 3.4
2017-Dec-23 07:29N 29°56' W 093°05'0 0.1
2017-Dec-23 07:00N 29°56' W 093°05'0 0.0
2017-Dec-23 06:30N 29°56' W 093°05'0 0.0
2017-Dec-23 05:59N 29°56' W 093°05'0 0.0
2017-Dec-23 05:30N 29°56' W 093°05'0 0.1
2017-Dec-23 05:00N 29°56' W 093°05'0 0.0
2017-Dec-23 04:30N 29°56' W 093°05'0 0.3
2017-Dec-23 03:58N 29°56' W 093°06'0 0.0
2017-Dec-23 03:18N 29°56' W 093°06'0 0.3
2017-Dec-23 02:44N 29°56' W 093°05'0 0.4
2017-Dec-23 02:25N 29°56' W 093°06'0 0.6
2017-Dec-23 02:00N 29°56' W 093°05'0 0.0
2017-Dec-23 01:25N 29°56' W 093°05'0 0.0
2017-Dec-23 00:59N 29°56' W 093°05'0 0.5
2017-Dec-23 00:24N 29°56' W 093°05'2 3.8
2017-Dec-23 00:00N 29°56' W 093°07'2 4.5
2017-Dec-22 23:30N 29°56' W 093°09'0 0.0
2017-Dec-22 23:00N 29°56' W 093°09'0 0.0
2017-Dec-22 22:30N 29°56' W 093°09'0 0.0
2017-Dec-22 22:00N 29°56' W 093°09'0 0.0
2017-Dec-22 21:30N 29°56' W 093°09'0 0.0
2017-Dec-22 21:00N 29°56' W 093°09'0 0.0
2017-Dec-22 20:30N 29°56' W 093°09'0 0.0
2017-Dec-22 20:00N 29°56' W 093°09'0 0.0
2017-Dec-22 19:30N 29°56' W 093°09'0 0.0
2017-Dec-22 19:00N 29°56' W 093°09'0 0.0
2017-Dec-22 18:30N 29°56' W 093°09'0 0.0
2017-Dec-22 18:00N 29°56' W 093°09'0 0.0
2017-Dec-22 17:30N 29°56' W 093°09'0 0.6
2017-Dec-22 17:00N 29°56' W 093°09'0 0.0
2017-Dec-22 16:30N 29°56' W 093°09'0 0.2
2017-Dec-22 16:00N 29°56' W 093°09'0 0.0
2017-Dec-22 15:30N 29°56' W 093°09'1 1.5
2017-Dec-22 15:00N 29°56' W 093°10'3 5.6
2017-Dec-22 14:30N 29°58' W 093°12'3 5.5
2017-Dec-22 14:00N 30°00' W 093°14'2 4.1
2017-Dec-22 13:30N 30°02' W 093°15'3 5.0
2017-Dec-22 13:00N 30°04' W 093°16'1 2.9
2017-Dec-22 12:30N 30°05' W 093°18'0 0.9
2017-Dec-22 12:00N 30°06' W 093°18'1 1.9
2017-Dec-22 11:30N 30°06' W 093°19'0 0.1
2017-Dec-22 11:00N 30°06' W 093°19'0 0.0
2017-Dec-22 10:30N 30°06' W 093°19'0 0.0
2017-Dec-22 10:00N 30°06' W 093°19'0 0.0
2017-Dec-22 09:30N 30°06' W 093°19'0 0.1
2017-Dec-22 09:00N 30°06' W 093°19'0 0.0
2017-Dec-22 08:30N 30°06' W 093°19'0 0.0
2017-Dec-22 08:00N 30°06' W 093°19'0 0.0
2017-Dec-22 07:30N 30°06' W 093°19'0 0.0
2017-Dec-22 07:00N 30°06' W 093°19'0 0.0
2017-Dec-22 06:30N 30°06' W 093°19'0 0.0
2017-Dec-22 06:00N 30°06' W 093°19'0 0.0
2017-Dec-22 05:30N 30°06' W 093°19'0 0.0
2017-Dec-22 05:00N 30°06' W 093°19'0 0.0
2017-Dec-22 04:30N 30°06' W 093°19'0 0.0
2017-Dec-22 04:00N 30°06' W 093°19'0 0.0
2017-Dec-22 03:30N 30°06' W 093°19'0 0.0
2017-Dec-22 03:00N 30°06' W 093°19'0 0.0
2017-Dec-22 02:30N 30°06' W 093°19'0 0.0
2017-Dec-22 02:00N 30°06' W 093°19'0 0.0
2017-Dec-22 01:30N 30°06' W 093°19'0 0.0
2017-Dec-22 01:00N 30°06' W 093°19'0 0.0
2017-Dec-22 00:30N 30°06' W 093°19'0 0.0
2017-Dec-22 00:00N 30°06' W 093°19'0 0.0
2017-Dec-21 23:30N 30°06' W 093°19'0 0.0
2017-Dec-21 23:00N 30°06' W 093°19'0 0.0
2017-Dec-21 22:30N 30°06' W 093°19'0 0.0
2017-Dec-21 22:00N 30°06' W 093°19'0 0.0
2017-Dec-21 21:30N 30°06' W 093°19'0 0.0
2017-Dec-21 21:00N 30°06' W 093°19'0 0.0
2017-Dec-21 20:30N 30°06' W 093°19'0 0.0
2017-Dec-21 20:00N 30°06' W 093°19'0 0.0
2017-Dec-21 19:30N 30°06' W 093°19'0 0.0
2017-Dec-21 19:00N 30°06' W 093°19'0 0.0
2017-Dec-21 18:30N 30°06' W 093°19'0 0.0
2017-Dec-21 18:00N 30°06' W 093°19'0 0.0
2017-Dec-21 17:30N 30°06' W 093°19'0 0.0
2017-Dec-21 17:00N 30°06' W 093°19'0 0.0
2017-Dec-21 16:30N 30°06' W 093°19'0 0.0
2017-Dec-21 16:00N 30°06' W 093°19'0 0.0
2017-Dec-21 15:30N 30°06' W 093°19'0 0.0
2017-Dec-21 15:00N 30°06' W 093°19'0 0.0
2017-Dec-21 14:30N 30°06' W 093°19'0 0.0
2017-Dec-21 13:57N 30°06' W 093°19'0 0.0
2017-Dec-21 13:29N 30°06' W 093°19'0 0.0
2017-Dec-21 12:59N 30°06' W 093°19'0 0.3
2017-Dec-21 12:30N 30°06' W 093°19'2 3.8
2017-Dec-21 12:00N 30°04' W 093°21'1 2.8
2017-Dec-21 11:30N 30°04' W 093°22'2 4.6
2017-Dec-21 10:59N 30°04' W 093°25'4 6.8
2017-Dec-21 10:23N 30°04' W 093°30'3 6.7
2017-Dec-21 09:59N 30°04' W 093°33'3 6.8
2017-Dec-21 09:29N 30°04' W 093°37'4 7.0
2017-Dec-21 08:59N 30°04' W 093°41'3 5.1
2017-Dec-21 08:29N 30°03' W 093°44'3 5.4
2017-Dec-21 08:00N 30°01' W 093°46'3 7.0
2017-Dec-21 07:30N 29°59' W 093°49'3 6.3
2017-Dec-21 07:00N 29°57' W 093°52'5 9.0
2017-Dec-21 06:29N 29°53' W 093°55'4 8.4
2017-Dec-21 06:00N 29°50' W 093°57'2 3.3
2017-Dec-21 05:30N 29°49' W 093°59'2 4.8
2017-Dec-21 05:00N 29°47' W 094°01'3 5.4
2017-Dec-21 04:30N 29°46' W 094°03'3 5.3
2017-Dec-21 04:00N 29°44' W 094°06'39 3.2
2017-Dec-20 15:48N 29°24' W 094°45'5 3.4
2017-Dec-20 14:25N 29°26' W 094°50'3 8.6
2017-Dec-20 14:00N 29°29' W 094°52'5 9.1
2017-Dec-20 13:30N 29°33' W 094°54'4 8.8
2017-Dec-20 13:00N 29°36' W 094°57'4 8.8
2017-Dec-20 12:30N 29°41' W 094°59'3 7.0
2017-Dec-20 12:00N 29°43' W 095°01'3 6.3
2017-Dec-20 11:29N 29°45' W 095°04'4 7.3
2017-Dec-20 11:00N 29°44' W 095°08'1 2.0
2017-Dec-20 10:30N 29°44' W 095°09'0 0.0
2017-Dec-20 10:00N 29°44' W 095°09'0 0.0
2017-Dec-20 09:29N 29°44' W 095°09'0 0.0
2017-Dec-20 09:00N 29°44' W 095°09'0 0.0
2017-Dec-20 08:30N 29°44' W 095°09'0 0.0
2017-Dec-20 08:00N 29°44' W 095°09'0 0.0
2017-Dec-20 07:30N 29°44' W 095°09'0 0.0
2017-Dec-20 07:00N 29°44' W 095°09'0 0.0
2017-Dec-20 06:30N 29°44' W 095°09'0 0.0
2017-Dec-20 06:00N 29°44' W 095°09'0 0.0
2017-Dec-20 05:30N 29°44' W 095°09'0 0.0
2017-Dec-20 05:00N 29°44' W 095°09'0 0.0
2017-Dec-20 04:30N 29°44' W 095°09'0 0.0
2017-Dec-20 04:00N 29°44' W 095°09'0 0.0
2017-Dec-20 03:30N 29°44' W 095°09'0 0.0
2017-Dec-20 02:54N 29°44' W 095°09'0 0.0
2017-Dec-20 02:24N 29°44' W 095°09'0 0.0
2017-Dec-20 01:52N 29°44' W 095°09'0 0.0
2017-Dec-20 01:23N 29°44' W 095°09'0 0.0
2017-Dec-20 00:58N 29°44' W 095°09'0 0.0
2017-Dec-20 00:29N 29°44' W 095°09'0 0.0
2017-Dec-20 00:00N 29°44' W 095°09'0 0.0
2017-Dec-19 23:28N 29°44' W 095°09'0 0.0
2017-Dec-19 16:00N 29°44' W 095°09'0 0.0
2017-Dec-19 15:24N 29°44' W 095°09'0 0.0
2017-Dec-19 15:00N 29°44' W 095°09'0 0.0
2017-Dec-19 13:42N 29°44' W 095°09'0 0.0
2017-Dec-19 13:31N 29°44' W 095°09'0 0.0
2017-Dec-19 12:38N 29°44' W 095°09'0 0.0
2017-Dec-19 12:30N 29°44' W 095°09'0 0.0
2017-Dec-19 12:00N 29°44' W 095°09'0 0.0
2017-Dec-19 11:30N 29°44' W 095°09'0 0.0
2017-Dec-19 10:59N 29°44' W 095°09'0 0.0
2017-Dec-19 10:28N 29°44' W 095°09'0 0.0
2017-Dec-19 09:59N 29°44' W 095°09'0 0.0
2017-Dec-19 09:30N 29°44' W 095°09'0 0.0
2017-Dec-19 09:00N 29°44' W 095°09'0 0.0
2017-Dec-19 08:30N 29°44' W 095°09'0 0.0
2017-Dec-19 08:01N 29°44' W 095°09'0 0.0
2017-Dec-19 07:30N 29°44' W 095°09'0 0.0
2017-Dec-19 07:00N 29°44' W 095°09'0 0.0
2017-Dec-19 06:30N 29°44' W 095°09'0 0.0
2017-Dec-19 06:00N 29°44' W 095°09'0 0.0
2017-Dec-19 05:30N 29°44' W 095°09'0 0.0
2017-Dec-19 05:00N 29°44' W 095°09'0 0.0
2017-Dec-19 04:30N 29°44' W 095°09'0 0.0
2017-Dec-19 04:00N 29°44' W 095°09'0 0.0
2017-Dec-19 03:30N 29°44' W 095°09'0 0.0
2017-Dec-19 03:01N 29°44' W 095°09'0 0.0
2017-Dec-19 02:29N 29°44' W 095°09'0 0.0
2017-Dec-19 01:59N 29°44' W 095°09'0 0.0
2017-Dec-19 00:13N 29°44' W 095°09'0 0.0
2017-Dec-18 23:48N 29°44' W 095°09'0 0.0
2017-Dec-18 23:23N 29°44' W 095°09'0 0.0
2017-Dec-18 21:05N 29°44' W 095°09'0 0.3
2017-Dec-18 20:55N 29°44' W 095°09'0 0.2
2017-Dec-18 20:30N 29°44' W 095°09'0 0.1
2017-Dec-18 19:52N 29°44' W 095°09'0 0.4
2017-Dec-18 19:29N 29°44' W 095°09'2 4.2
2017-Dec-18 18:55N 29°45' W 095°06'2 4.8
2017-Dec-18 18:29N 29°45' W 095°04'3 6.7
2017-Dec-18 18:00N 29°43' W 095°01'3 6.7
2017-Dec-18 17:30N 29°40' W 094°59'4 8.3
2017-Dec-18 17:00N 29°37' W 094°57'4 8.3
2017-Dec-18 16:30N 29°33' W 094°55'4 7.9
2017-Dec-18 16:00N 29°30' W 094°52'70 2.1
2017-Dec-17 06:54N 30°04' W 093°41'1 1.5
2017-Dec-17 06:27N 30°04' W 093°40'3 5.9
2017-Dec-17 06:00N 30°04' W 093°37'3 5.5
2017-Dec-17 05:30N 30°04' W 093°34'3 5.6
2017-Dec-17 05:00N 30°04' W 093°30'3 5.6
2017-Dec-17 04:30N 30°04' W 093°27'3 5.6
2017-Dec-17 04:00N 30°04' W 093°24'3 5.4
2017-Dec-17 03:30N 30°04' W 093°21'2 4.8
2017-Dec-17 03:00N 30°06' W 093°19'1 2.2
2017-Dec-17 02:30N 30°06' W 093°18'0 1.0
2017-Dec-17 02:00N 30°05' W 093°18'1 1.1
2017-Dec-17 01:30N 30°05' W 093°17'2 3.2
2017-Dec-17 01:00N 30°04' W 093°16'0 0.0
2017-Dec-17 00:30N 30°04' W 093°16'0 0.0
2017-Dec-17 00:00N 30°04' W 093°16'0 0.0
2017-Dec-16 23:30N 30°04' W 093°16'0 0.0
2017-Dec-16 23:00N 30°04' W 093°16'0 0.0
2017-Dec-16 22:30N 30°04' W 093°16'0 0.1
2017-Dec-16 22:01N 30°04' W 093°16'1 1.8
2017-Dec-16 21:30N 30°03' W 093°16'0 0.0
2017-Dec-16 21:00N 30°03' W 093°16'0 0.0
2017-Dec-16 20:30N 30°03' W 093°16'0 0.3
2017-Dec-16 20:00N 30°03' W 093°16'1 2.6
2017-Dec-16 19:30N 30°02' W 093°14'2 4.5
2017-Dec-16 19:00N 29°60' W 093°13'3 5.6
2017-Dec-16 18:30N 29°58' W 093°11'2 4.4
2017-Dec-16 18:00N 29°56' W 093°09'4 5.5
2017-Dec-16 17:20N 29°56' W 093°05'33 3.4
2017-Dec-16 07:38N 29°53' W 092°27'2 4.6
2017-Dec-16 07:10N 29°53' W 092°24'1 5.1
2017-Dec-16 06:53N 29°52' W 092°23'2 4.2
2017-Dec-16 06:30N 29°51' W 092°22'2 3.9
2017-Dec-16 06:00N 29°50' W 092°20'2 3.5
2017-Dec-16 05:30N 29°50' W 092°18'2 4.3
2017-Dec-16 05:00N 29°48' W 092°16'2 4.4
2017-Dec-16 04:30N 29°48' W 092°13'2 3.5
2017-Dec-16 04:00N 29°47' W 092°12'1 2.4
2017-Dec-16 03:30N 29°47' W 092°10'2 3.4
2017-Dec-16 03:00N 29°47' W 092°08'1 1.9
2017-Dec-16 02:30N 29°47' W 092°07'1 2.2
2017-Dec-16 02:00N 29°48' W 092°06'2 4.4
2017-Dec-16 01:28N 29°49' W 092°04'2 5.0
2017-Dec-16 01:00N 29°49' W 092°01'3 5.2
2017-Dec-16 00:30N 29°50' W 091°58'3 5.0
2017-Dec-16 00:00N 29°51' W 091°55'52 5.1
2017-Dec-15 13:49N 29°35' W 090°58'2 5.4
2017-Dec-15 13:22N 29°34' W 090°56'3 5.7
2017-Dec-15 12:52N 29°32' W 090°53'2 5.2
2017-Dec-15 12:30N 29°32' W 090°51'3 5.6
2017-Dec-15 12:00N 29°32' W 090°48'2 4.0
2017-Dec-15 11:30N 29°33' W 090°45'2 3.8
2017-Dec-15 11:00N 29°34' W 090°44'2 3.6
2017-Dec-15 10:30N 29°36' W 090°43'1 3.0
2017-Dec-15 10:00N 29°37' W 090°42'2 3.7
2017-Dec-15 09:30N 29°36' W 090°40'3 5.0
2017-Dec-15 09:00N 29°35' W 090°37'2 4.5
2017-Dec-15 08:30N 29°34' W 090°35'3 5.4
2017-Dec-15 08:00N 29°34' W 090°32'3 5.7
2017-Dec-15 07:30N 29°34' W 090°28'3 5.6
2017-Dec-15 07:00N 29°33' W 090°25'2 3.8
2017-Dec-15 06:30N 29°34' W 090°23'2 4.5
2017-Dec-15 06:00N 29°36' W 090°22'5 5.2
2017-Dec-15 05:06N 29°39' W 090°18'0 5.2
2017-Dec-15 05:00N 29°39' W 090°17'  

Dump ship's entire track history